Time;durP1;ratioP1;P1;durP2;ratioP2;P2;SDS_P1;SDS_P2;PMS_P1;PMS_P2;Temp;Humidity;BMP_temperature;BMP_pressure;BME280_temperature;BME280_humidity;BME280_pressure;Samples;Min_cycle;Max_cycle;Signal;HPM_P1;HPM_P2
2022/01/27 00:05:21;;;;;;;3.78;2.97;;;21.80;30.20;;;;;;5055953;28;20121;-49
2022/01/27 00:08:13;;;;;;;3.53;2.97;;;21.80;30.20;;;;;;5056824;28;20056;-47
2022/01/27 00:10:52;;;;;;;3.75;3.00;;;21.80;30.20;;;;;;5055212;28;20036;-52
2022/01/27 00:13:24;;;;;;;2.53;2.30;;;21.80;30.20;;;;;;5060983;28;20036;-50
2022/01/27 00:15:59;;;;;;;4.03;3.28;;;21.80;30.30;;;;;;5055663;28;20040;-51
2022/01/27 00:18:25;;;;;;;3.47;2.92;;;21.80;30.30;;;;;;5055988;28;20025;-48
2022/01/27 00:20:51;;;;;;;3.40;3.10;;;21.70;30.20;;;;;;5055902;28;20032;-50
2022/01/27 00:23:17;;;;;;;4.18;3.50;;;21.70;30.20;;;;;;5060172;28;20021;-46
2022/01/27 00:25:43;;;;;;;4.00;2.83;;;21.80;30.30;;;;;;5055529;28;20369;-47
2022/01/27 00:28:09;;;;;;;4.10;3.13;;;21.80;30.30;;;;;;5058729;28;20025;-50
2022/01/27 00:30:37;;;;;;;4.88;3.22;;;21.80;30.30;;;;;;5055731;28;20028;-48
2022/01/27 00:33:07;;;;;;;3.70;2.75;;;21.70;30.20;;;;;;5059782;28;20094;-48
2022/01/27 00:35:33;;;;;;;4.13;3.08;;;21.70;30.20;;;;;;5055696;28;20028;-52
2022/01/27 00:38:00;;;;;;;3.08;2.60;;;21.70;30.30;;;;;;5055776;28;20052;-50
2022/01/27 00:40:26;;;;;;;3.97;2.78;;;21.70;30.30;;;;;;5062113;28;20101;-53
2022/01/27 00:42:53;;;;;;;4.35;3.00;;;21.70;30.30;;;;;;5059622;28;20398;-52
2022/01/27 00:45:19;;;;;;;3.50;2.70;;;21.70;30.30;;;;;;5055024;28;20340;-48
2022/01/27 00:47:44;;;;;;;3.55;3.00;;;21.70;30.30;;;;;;5059716;28;20024;-49
2022/01/27 00:50:11;;;;;;;3.20;2.60;;;21.70;30.30;;;;;;5054879;28;20313;-52
2022/01/27 00:52:41;;;;;;;2.72;2.50;;;21.70;30.30;;;;;;5055528;28;20047;-47
2022/01/27 00:55:09;;;;;;;3.28;2.65;;;21.70;30.30;;;;;;5055136;28;20033;-48
2022/01/27 01:00:07;;;;;;;3.17;2.40;;;21.70;30.30;;;;;;5054778;28;20045;-47
2022/01/27 01:08:01;;;;;;;2.65;2.13;;;21.60;30.30;;;;;;5061341;28;20056;-47
2022/01/27 01:15:48;;;;;;;3.03;1.90;;;21.60;30.40;;;;;;5055392;28;20040;-48
2022/01/27 01:34:25;;;;;;;2.58;2.00;;;21.50;30.40;;;;;;5057588;28;20048;-47
2022/01/27 01:36:57;;;;;;;3.00;2.38;;;21.50;30.40;;;;;;5067017;28;20040;-49
2022/01/27 01:39:29;;;;;;;2.40;2.20;;;21.50;30.50;;;;;;5050799;28;20337;-51
2022/01/27 01:41:56;;;;;;;2.10;1.88;;;21.50;30.50;;;;;;5056282;28;20469;-51
2022/01/27 01:44:24;;;;;;;2.58;1.98;;;21.50;30.50;;;;;;5057626;28;20100;-51
2022/01/27 01:46:49;;;;;;;2.40;1.98;;;21.50;30.50;;;;;;5056106;28;20066;-47
2022/01/27 01:49:15;;;;;;;3.10;2.50;;;21.50;30.50;;;;;;5075152;28;20033;-47
2022/01/27 01:51:43;;;;;;;2.90;1.98;;;21.50;30.50;;;;;;5056581;28;20017;-51
2022/01/27 01:54:10;;;;;;;2.72;2.03;;;21.50;30.60;;;;;;5058056;28;20032;-50
2022/01/27 01:56:37;;;;;;;2.90;2.47;;;21.50;30.50;;;;;;5071036;28;20355;-50
2022/01/27 01:59:05;;;;;;;2.70;2.22;;;21.50;30.60;;;;;;5054610;28;20048;-54
2022/01/27 02:01:32;;;;;;;2.63;2.35;;;21.50;30.60;;;;;;5057717;28;20021;-50
2022/01/27 02:04:03;;;;;;;2.80;2.33;;;21.50;30.60;;;;;;5058489;28;20086;-53
2022/01/27 02:06:38;;;;;;;3.03;2.08;;;21.50;30.60;;;;;;5058249;28;20033;-47
2022/01/27 02:09:23;;;;;;;2.58;2.38;;;21.40;30.60;;;;;;5058636;28;20472;-46
2022/01/27 02:20:06;;;;;;;2.22;1.80;;;21.40;30.70;;;;;;5068680;28;20509;-49
2022/01/27 02:22:32;;;;;;;2.78;2.20;;;21.40;30.70;;;;;;5057707;28;20452;-45
2022/01/27 02:24:58;;;;;;;3.55;2.30;;;21.40;30.70;;;;;;5058135;28;20052;-50
2022/01/27 02:27:24;;;;;;;2.83;2.13;;;21.40;30.70;;;;;;5075039;28;20071;-49
2022/01/27 02:29:50;;;;;;;2.97;2.05;;;21.40;30.70;;;;;;5071748;28;20317;-48
2022/01/27 02:32:17;;;;;;;4.15;2.55;;;21.40;30.70;;;;;;5057671;28;20075;-47
2022/01/27 02:34:44;;;;;;;2.60;1.85;;;21.40;30.70;;;;;;5057927;28;20059;-51
2022/01/27 02:37:10;;;;;;;2.33;2.00;;;21.40;30.70;;;;;;5072709;28;20070;-49
2022/01/27 02:39:36;;;;;;;2.03;1.75;;;21.40;30.70;;;;;;5061155;28;20086;-47
2022/01/27 02:42:06;;;;;;;2.88;2.00;;;21.40;30.70;;;;;;5057464;28;20103;-54
2022/01/27 02:44:46;;;;;;;2.80;1.88;;;21.40;30.70;;;;;;5057647;28;20167;-51
2022/01/27 02:47:16;;;;;;;2.58;1.90;;;21.30;30.70;;;;;;5057323;28;20493;-46
2022/01/27 02:49:42;;;;;;;3.17;2.22;;;21.30;30.70;;;;;;5057525;28;20028;-52
2022/01/27 02:52:09;;;;;;;3.97;2.45;;;21.30;30.70;;;;;;5061115;28;20440;-49
2022/01/27 02:54:35;;;;;;;2.55;2.13;;;21.30;30.70;;;;;;5056935;28;21751;-52
2022/01/27 02:57:02;;;;;;;2.72;2.30;;;21.30;30.80;;;;;;5067234;28;20101;-47
2022/01/27 02:59:28;;;;;;;2.63;1.92;;;21.30;30.80;;;;;;5061003;28;20045;-52
2022/01/27 03:01:55;;;;;;;2.78;2.05;;;21.30;30.80;;;;;;5039090;28;20013;-51
2022/01/27 03:04:22;;;;;;;3.83;2.47;;;21.30;30.80;;;;;;5057354;28;20091;-50
2022/01/27 03:06:49;;;;;;;2.42;1.90;;;21.30;30.80;;;;;;5065085;28;20024;-49
2022/01/27 03:09:15;;;;;;;2.72;2.45;;;21.30;30.80;;;;;;5077271;28;20059;-47
2022/01/27 03:11:56;;;;;;;2.22;1.95;;;21.30;30.80;;;;;;5056826;28;20029;-51
2022/01/27 03:14:23;;;;;;;3.35;2.25;;;21.30;30.80;;;;;;5057023;28;20036;-48
2022/01/27 03:16:52;;;;;;;2.50;2.00;;;21.30;30.80;;;;;;5056919;28;20090;-48
2022/01/27 03:19:18;;;;;;;2.30;2.10;;;21.30;30.80;;;;;;5056640;28;20468;-49
2022/01/27 03:21:44;;;;;;;2.40;2.00;;;21.30;30.80;;;;;;5069323;28;20113;-51
2022/01/27 03:24:10;;;;;;;4.25;2.20;;;21.30;30.80;;;;;;5077485;28;20086;-49
2022/01/27 03:26:36;;;;;;;3.05;1.75;;;21.20;30.80;;;;;;5064529;28;20425;-52
2022/01/27 03:29:03;;;;;;;2.35;1.92;;;21.20;30.80;;;;;;5056561;28;20063;-52
2022/01/27 03:31:29;;;;;;;2.72;2.10;;;21.20;30.80;;;;;;5065413;28;20108;-47
2022/01/27 03:33:55;;;;;;;2.60;1.90;;;21.20;30.80;;;;;;5073624;28;20127;-49
2022/01/27 03:36:21;;;;;;;2.22;1.70;;;21.20;30.90;;;;;;5057324;28;20079;-51
2022/01/27 03:38:48;;;;;;;2.25;1.95;;;21.20;30.90;;;;;;5056781;28;20033;-50
2022/01/27 03:41:19;;;;;;;2.97;1.92;;;21.20;30.90;;;;;;5058051;28;20032;-47
2022/01/27 03:43:46;;;;;;;2.10;1.83;;;21.20;30.90;;;;;;5056669;28;20051;-50
2022/01/27 03:46:13;;;;;;;3.25;1.90;;;21.20;30.90;;;;;;5056925;28;20090;-50
2022/01/27 03:48:39;;;;;;;2.67;1.98;;;21.20;30.90;;;;;;5055989;28;20324;-48
2022/01/27 03:51:06;;;;;;;3.33;2.28;;;21.20;30.90;;;;;;5059781;28;20055;-48
2022/01/27 03:53:32;;;;;;;2.70;1.90;;;21.20;30.90;;;;;;5056761;28;20024;-49
2022/01/27 03:55:58;;;;;;;2.97;2.05;;;21.20;30.90;;;;;;5066423;28;20380;-50
2022/01/27 03:58:24;;;;;;;3.55;2.13;;;21.20;30.90;;;;;;5056513;28;20040;-49
2022/01/27 04:00:50;;;;;;;2.00;1.80;;;21.20;30.90;;;;;;5057342;28;20032;-51
2022/01/27 04:03:18;;;;;;;1.90;1.63;;;21.20;30.90;;;;;;5056047;28;20175;-48
2022/01/27 04:05:53;;;;;;;2.30;1.90;;;21.20;30.90;;;;;;5065289;28;20024;-50
2022/01/27 04:08:20;;;;;;;2.00;1.80;;;21.20;31.00;;;;;;5056409;28;20444;-50
2022/01/27 04:10:46;;;;;;;1.75;1.45;;;21.20;31.00;;;;;;5058545;28;20047;-49
2022/01/27 04:13:12;;;;;;;2.40;1.88;;;21.20;31.00;;;;;;5076163;28;20052;-48
2022/01/27 04:15:40;;;;;;;2.15;1.92;;;21.20;31.00;;;;;;5061363;28;20029;-46
2022/01/27 04:18:06;;;;;;;3.05;2.00;;;21.10;30.90;;;;;;5071779;28;20048;-50
2022/01/27 04:20:32;;;;;;;2.40;1.85;;;21.20;31.00;;;;;;5058585;28;20044;-49
2022/01/27 04:22:58;;;;;;;2.35;1.92;;;21.10;30.90;;;;;;5055138;28;20436;-50
2022/01/27 04:25:24;;;;;;;2.40;1.85;;;21.10;31.00;;;;;;5065001;28;20083;-49
2022/01/27 04:27:55;;;;;;;2.17;1.98;;;21.10;31.00;;;;;;5068591;28;20020;-51
2022/01/27 04:30:24;;;;;;;2.55;1.98;;;21.10;31.00;;;;;;5068466;28;20024;-45
2022/01/27 04:32:53;;;;;;;2.45;1.80;;;21.10;31.00;;;;;;5056281;28;20028;-46
2022/01/27 04:35:22;;;;;;;2.25;1.70;;;21.10;31.00;;;;;;5056023;28;20040;-49
2022/01/27 04:40:37;;;;;;;3.80;1.90;;;21.10;31.00;;;;;;5062300;28;20070;-50
2022/01/27 04:43:15;;;;;;;1.75;1.60;;;21.10;31.00;;;;;;5065845;28;20032;-45
2022/01/27 04:45:54;;;;;;;2.05;1.83;;;21.10;31.10;;;;;;5065959;28;20029;-50
2022/01/27 04:48:22;;;;;;;2.38;1.80;;;21.10;31.10;;;;;;5068156;28;20029;-48
2022/01/27 04:50:50;;;;;;;2.55;1.98;;;21.10;31.10;;;;;;5062749;28;20060;-45
2022/01/27 04:53:25;;;;;;;1.92;1.67;;;21.10;31.10;;;;;;5059070;28;20324;-50
2022/01/27 04:55:51;;;;;;;2.63;1.95;;;21.10;31.10;;;;;;5055477;28;20100;-51
2022/01/27 04:58:30;;;;;;;3.45;1.70;;;21.00;31.10;;;;;;5070620;28;20123;-49
2022/01/27 05:00:59;;;;;;;2.35;1.98;;;21.00;31.10;;;;;;5060518;28;20076;-45
2022/01/27 05:03:36;;;;;;;2.70;2.00;;;21.10;31.10;;;;;;5055578;28;20067;-46
2022/01/27 05:06:02;;;;;;;2.97;1.88;;;21.00;31.10;;;;;;5055071;28;20056;-51
2022/01/27 05:08:28;;;;;;;2.60;1.83;;;21.00;31.70;;;;;;5062629;28;20028;-51
2022/01/27 05:11:02;;;;;;;2.35;1.67;;;21.00;31.10;;;;;;5054252;28;20100;-49
2022/01/27 05:13:35;;;;;;;1.98;1.77;;;21.00;31.10;;;;;;5071513;28;20090;-50
2022/01/27 05:16:01;;;;;;;2.70;1.80;;;21.00;31.20;;;;;;5062955;28;20036;-45
2022/01/27 05:18:27;;;;;;;2.13;1.70;;;21.00;31.20;;;;;;5055011;28;20025;-47
2022/01/27 05:20:52;;;;;;;2.30;1.90;;;21.00;31.20;;;;;;5054153;28;20041;-48
2022/01/27 05:23:18;;;;;;;2.97;1.85;;;21.00;31.20;;;;;;5055650;28;20098;-48
2022/01/27 05:25:44;;;;;;;2.28;1.67;;;21.00;31.20;;;;;;5054765;28;20162;-48
2022/01/27 05:28:10;;;;;;;2.22;1.88;;;21.00;31.30;;;;;;5068400;28;20028;-50
2022/01/27 05:30:35;;;;;;;2.00;1.80;;;21.00;31.30;;;;;;5066184;28;20408;-48
2022/01/27 05:33:01;;;;;;;2.90;2.00;;;21.00;31.30;;;;;;5054710;28;20036;-51
2022/01/27 05:35:27;;;;;;;2.78;2.05;;;21.00;31.30;;;;;;5054684;28;20429;-52
2022/01/27 05:37:53;;;;;;;2.10;1.80;;;21.00;31.30;;;;;;5066297;28;20036;-50
2022/01/27 05:40:19;;;;;;;2.17;1.77;;;21.00;31.30;;;;;;5062531;28;20040;-48
2022/01/27 05:42:45;;;;;;;1.60;1.50;;;21.00;31.30;;;;;;5054268;28;20035;-47
2022/01/27 05:45:11;;;;;;;2.45;2.17;;;21.00;31.30;;;;;;5055914;28;20036;-52
2022/01/27 05:47:37;;;;;;;1.90;1.58;;;21.00;31.40;;;;;;5054774;28;20021;-48
2022/01/27 05:50:04;;;;;;;2.47;1.70;;;21.00;31.40;;;;;;5054630;28;20490;-47
2022/01/27 05:52:31;;;;;;;2.45;1.80;;;21.00;31.40;;;;;;5054366;28;20025;-48
2022/01/27 05:54:57;;;;;;;2.00;1.75;;;21.00;31.40;;;;;;5054394;28;20037;-46
2022/01/27 05:57:23;;;;;;;3.28;1.80;;;21.00;31.40;;;;;;5064659;28;20420;-50
2022/01/27 05:59:49;;;;;;;2.03;1.42;;;20.90;31.40;;;;;;5041690;28;20088;-47
2022/01/27 06:02:15;;;;;;;2.20;1.90;;;20.90;31.40;;;;;;5054793;28;20025;-48
2022/01/27 06:04:40;;;;;;;2.03;1.67;;;20.90;31.40;;;;;;5054001;28;20032;-48
2022/01/27 06:07:06;;;;;;;2.28;1.77;;;20.90;31.40;;;;;;5062990;28;20028;-48
2022/01/27 06:09:32;;;;;;;2.60;1.80;;;20.90;31.40;;;;;;5061629;28;20056;-48
2022/01/27 06:11:58;;;;;;;1.92;1.63;;;20.90;31.40;;;;;;5060716;28;20040;-46
2022/01/27 06:14:23;;;;;;;2.13;1.50;;;20.90;31.50;;;;;;5062498;28;20033;-46
2022/01/27 06:16:50;;;;;;;2.15;1.73;;;20.90;31.50;;;;;;5055169;28;20036;-48
2022/01/27 06:19:16;;;;;;;3.33;1.88;;;21.00;31.50;;;;;;5053847;28;20041;-45
2022/01/27 06:21:44;;;;;;;6.28;1.90;;;20.90;31.60;;;;;;5054629;28;20356;-48
2022/01/27 06:24:10;;;;;;;6.97;1.75;;;21.00;31.70;;;;;;5053875;28;20029;-46
2022/01/27 06:26:36;;;;;;;3.08;2.03;;;21.00;31.80;;;;;;5054468;28;20029;-49
2022/01/27 06:29:02;;;;;;;3.03;2.08;;;21.00;31.80;;;;;;5053494;28;20021;-47
2022/01/27 06:31:28;;;;;;;3.05;1.77;;;21.00;31.80;;;;;;5054085;28;20729;-49
2022/01/27 06:33:54;;;;;;;2.83;1.83;;;20.90;31.80;;;;;;5052608;28;20124;-49
2022/01/27 06:36:19;;;;;;;2.70;1.92;;;20.90;31.80;;;;;;5056839;28;20029;-48
2022/01/27 06:38:46;;;;;;;1.92;1.70;;;20.90;31.80;;;;;;5073707;28;20039;-47
2022/01/27 06:41:12;;;;;;;1.92;1.60;;;20.90;31.90;;;;;;5053535;28;20451;-48
2022/01/27 06:43:37;;;;;;;2.40;1.70;;;20.90;31.90;;;;;;5053939;28;20096;-46
2022/01/27 06:46:03;;;;;;;3.50;1.98;;;20.90;31.90;;;;;;5055169;28;20021;-47
2022/01/27 06:48:29;;;;;;;3.13;1.77;;;20.90;31.90;;;;;;5057590;28;20075;-52
2022/01/27 06:50:56;;;;;;;1.50;1.40;;;20.90;31.90;;;;;;5060656;28;20024;-46
2022/01/27 06:53:22;;;;;;;2.35;1.60;;;20.90;32.00;;;;;;5078095;28;20439;-46
2022/01/27 06:55:49;;;;;;;4.20;1.48;;;20.90;32.00;;;;;;5064562;28;20020;-47
2022/01/27 06:58:15;;;;;;;1.98;1.55;;;20.90;32.00;;;;;;5077797;28;20025;-49
2022/01/27 07:00:41;;;;;;;2.50;1.52;;;20.90;32.00;;;;;;5064290;28;20040;-48
2022/01/27 07:03:07;;;;;;;2.15;1.30;;;20.80;32.00;;;;;;5058045;28;20074;-47
2022/01/27 07:05:34;;;;;;;2.03;1.48;;;20.80;32.00;;;;;;5056753;28;20021;-51
2022/01/27 07:08:00;;;;;;;2.83;1.60;;;20.80;32.00;;;;;;5056682;28;20032;-49
2022/01/27 07:10:27;;;;;;;2.25;1.48;;;20.80;32.00;;;;;;5048027;28;20120;-51
2022/01/27 07:12:53;;;;;;;3.13;1.65;;;20.80;32.00;;;;;;5057055;28;20333;-46
2022/01/27 07:15:19;;;;;;;2.50;1.60;;;20.80;32.00;;;;;;5060278;28;20025;-49
2022/01/27 07:17:45;;;;;;;1.67;1.30;;;20.80;32.00;;;;;;5057143;28;20033;-48
2022/01/27 07:20:12;;;;;;;2.10;1.52;;;20.80;32.10;;;;;;5056227;28;20033;-52
2022/01/27 07:22:38;;;;;;;2.38;1.60;;;20.80;32.10;;;;;;5056573;28;20403;-47
2022/01/27 07:25:06;;;;;;;1.80;1.25;;;20.80;32.20;;;;;;5056390;28;20087;-48
2022/01/27 07:27:33;;;;;;;2.70;1.40;;;20.80;32.20;;;;;;5056723;28;20025;-47
2022/01/27 07:30:00;;;;;;;2.60;1.60;;;20.70;32.20;;;;;;5056148;28;20325;-48
2022/01/27 07:32:26;;;;;;;1.83;1.40;;;20.80;32.30;;;;;;5056992;28;20095;-45
2022/01/27 07:34:51;;;;;;;3.30;1.73;;;20.80;32.30;;;;;;5057016;28;20367;-45
2022/01/27 07:37:17;;;;;;;1.98;1.40;;;20.80;32.40;;;;;;5062443;28;20558;-45
2022/01/27 07:39:43;;;;;;;2.00;1.33;;;20.80;32.40;;;;;;5060853;28;20036;-46
2022/01/27 07:42:09;;;;;;;1.80;1.38;;;20.70;32.40;;;;;;5071969;28;20025;-45
2022/01/27 07:44:35;;;;;;;2.30;1.48;;;20.80;32.40;;;;;;5066144;28;20347;-44
2022/01/27 07:47:01;;;;;;;2.17;1.58;;;20.80;32.50;;;;;;5069842;28;20459;-45
2022/01/27 07:49:28;;;;;;;3.13;1.55;;;20.80;32.50;;;;;;5076815;28;20058;-45
2022/01/27 07:51:54;;;;;;;2.20;1.60;;;20.80;32.60;;;;;;5052851;28;20017;-45
2022/01/27 07:54:20;;;;;;;2.20;1.67;;;20.80;32.70;;;;;;5051865;28;20039;-45
2022/01/27 07:56:46;;;;;;;3.40;1.70;;;20.80;32.80;;;;;;5051888;28;20358;-48
2022/01/27 07:59:12;;;;;;;2.05;1.52;;;20.80;32.90;;;;;;5053044;28;20048;-46
2022/01/27 08:01:38;;;;;;;2.92;1.42;;;20.80;32.90;;;;;;5054388;28;20040;-45
2022/01/27 08:04:04;;;;;;;3.45;1.55;;;20.80;32.90;;;;;;5068402;28;20020;-50
2022/01/27 08:06:30;;;;;;;1.88;1.48;;;20.90;32.90;;;;;;5044999;28;20420;-48
2022/01/27 08:08:56;;;;;;;2.08;1.55;;;21.00;32.90;;;;;;5056274;28;20029;-51
2022/01/27 08:11:22;;;;;;;1.83;1.50;;;21.20;32.90;;;;;;5055909;28;20029;-49
2022/01/27 08:13:48;;;;;;;3.78;1.70;;;21.20;32.80;;;;;;5057237;28;20040;-50
2022/01/27 08:16:14;;;;;;;1.65;1.30;;;21.40;32.70;;;;;;5062336;28;20017;-47
2022/01/27 08:18:40;;;;;;;2.20;1.33;;;21.40;32.60;;;;;;5074393;28;20038;-45
2022/01/27 08:21:06;;;;;;;2.95;1.20;;;21.60;32.50;;;;;;5058648;28;20359;-50
2022/01/27 08:23:32;;;;;;;1.67;1.10;;;21.70;32.50;;;;;;5055664;28;20112;-49
2022/01/27 08:26:07;;;;;;;2.33;1.20;;;21.70;32.40;;;;;;5037868;28;20028;-46
2022/01/27 08:28:58;;;;;;;1.50;1.27;;;21.90;32.40;;;;;;5056590;28;20150;-47
2022/01/27 08:31:22;;;;;;;2.03;1.20;;;22.00;32.30;;;;;;5068849;28;20100;-46
2022/01/27 08:33:48;;;;;;;1.15;1.00;;;22.10;32.20;;;;;;5052225;28;20028;-48
2022/01/27 08:36:15;;;;;;;1.60;0.93;;;22.10;32.10;;;;;;5050315;28;20032;-47
2022/01/27 08:38:43;;;;;;;1.20;1.00;;;22.20;32.10;;;;;;5052682;28;20041;-45
2022/01/27 08:41:10;;;;;;;1.35;1.00;;;22.40;32.00;;;;;;5053177;28;20036;-51
2022/01/27 08:43:35;;;;;;;1.90;1.00;;;22.40;31.90;;;;;;5049747;28;20029;-46
2022/01/27 08:46:01;;;;;;;1.60;1.00;;;22.50;31.90;;;;;;5051834;28;20058;-49
2022/01/27 08:48:28;;;;;;;1.45;1.10;;;22.60;31.90;;;;;;5050397;28;20025;-48
2022/01/27 08:51:01;;;;;;;1.20;0.95;;;22.70;31.80;;;;;;5038856;28;20028;-52
2022/01/27 08:53:29;;;;;;;1.48;1.00;;;22.70;31.80;;;;;;5054783;28;20033;-47
2022/01/27 08:55:55;;;;;;;2.05;1.33;;;22.80;31.70;;;;;;5058010;28;20114;-47
2022/01/27 08:58:23;;;;;;;1.60;1.02;;;22.90;31.70;;;;;;5055181;28;20451;-50
2022/01/27 09:00:49;;;;;;;1.13;0.90;;;23.00;31.70;;;;;;5053621;28;20432;-47
2022/01/27 09:03:15;;;;;;;2.15;1.20;;;23.10;31.60;;;;;;5054729;28;20035;-49
2022/01/27 09:05:40;;;;;;;4.72;1.20;;;23.10;31.60;;;;;;5045836;28;20089;-45
2022/01/27 09:08:06;;;;;;;1.27;1.05;;;23.20;31.50;;;;;;5037152;28;20025;-49
2022/01/27 09:10:33;;;;;;;1.65;0.90;;;23.30;31.50;;;;;;5046332;28;20433;-50
2022/01/27 09:13:03;;;;;;;1.33;1.00;;;23.30;31.40;;;;;;5035611;28;20053;-46
2022/01/27 09:15:30;;;;;;;1.27;0.77;;;23.40;31.40;;;;;;5049300;28;20024;-51
2022/01/27 09:17:58;;;;;;;0.77;0.70;;;23.40;31.30;;;;;;5068069;28;20078;-49
2022/01/27 09:20:24;;;;;;;1.88;0.88;;;23.50;31.40;;;;;;5064687;28;20097;-49
2022/01/27 09:22:52;;;;;;;1.02;0.73;;;23.60;31.30;;;;;;5062408;28;20447;-47
2022/01/27 09:25:22;;;;;;;1.55;0.90;;;23.60;31.30;;;;;;5063413;28;20472;-47
2022/01/27 09:27:49;;;;;;;1.40;0.80;;;23.70;31.20;;;;;;5065921;28;20090;-49
2022/01/27 09:30:17;;;;;;;1.42;1.00;;;23.70;31.20;;;;;;5055973;28;20828;-47
2022/01/27 09:32:44;;;;;;;1.00;0.80;;;23.80;31.20;;;;;;5065057;28;20137;-48
2022/01/27 09:35:09;;;;;;;0.82;0.60;;;23.90;31.20;;;;;;5064999;28;20024;-50
2022/01/27 09:37:35;;;;;;;1.30;0.90;;;23.90;31.10;;;;;;5058248;28;20036;-46
2022/01/27 09:40:01;;;;;;;1.15;0.85;;;24.00;31.10;;;;;;5059661;28;20114;-48
2022/01/27 09:42:30;;;;;;;1.20;0.70;;;24.10;31.10;;;;;;5075329;28;20124;-47
2022/01/27 09:44:59;;;;;;;0.95;0.70;;;24.10;31.00;;;;;;5065920;28;20415;-47
2022/01/27 09:47:29;;;;;;;1.25;0.70;;;24.10;31.00;;;;;;5067691;28;20404;-48
2022/01/27 09:50:06;;;;;;;1.33;0.80;;;24.20;31.00;;;;;;5065150;28;20043;-47
2022/01/27 09:52:32;;;;;;;1.10;0.80;;;24.20;31.00;;;;;;5064269;28;20119;-48
2022/01/27 09:54:58;;;;;;;2.45;0.90;;;24.20;30.90;;;;;;5053596;28;20416;-50
2022/01/27 09:57:24;;;;;;;2.70;0.75;;;24.20;31.00;;;;;;5054444;28;20025;-48
2022/01/27 09:59:50;;;;;;;2.47;0.95;;;24.20;31.10;;;;;;5054145;28;20610;-47
2022/01/27 10:02:21;;;;;;;2.22;0.80;;;24.20;31.20;;;;;;5057371;28;20444;-48
2022/01/27 10:04:57;;;;;;;2.15;0.63;;;24.20;31.30;;;;;;5061935;28;20095;-44
2022/01/27 10:07:29;;;;;;;1.65;0.80;;;24.20;31.30;;;;;;5051405;28;20029;-47
2022/01/27 10:10:00;;;;;;;1.70;0.90;;;24.10;31.30;;;;;;5055309;28;20082;-47
2022/01/27 10:12:29;;;;;;;1.00;0.68;;;24.10;31.40;;;;;;5054149;28;20037;-46
2022/01/27 10:15:10;;;;;;;1.17;0.85;;;24.10;31.40;;;;;;5046045;28;20036;-49
2022/01/27 10:17:39;;;;;;;1.58;0.80;;;24.10;31.40;;;;;;5066612;28;20029;-50
2022/01/27 10:20:18;;;;;;;1.83;0.65;;;24.10;31.50;;;;;;5062286;28;20045;-45
2022/01/27 10:23:24;;;;;;;0.88;0.52;;;24.10;31.50;;;;;;5046753;28;20111;-49
2022/01/27 10:25:55;;;;;;;1.15;0.63;;;24.00;31.50;;;;;;5043148;28;20100;-49
2022/01/27 10:28:24;;;;;;;1.83;0.80;;;24.00;31.70;;;;;;5070364;28;20944;-48
2022/01/27 10:31:08;;;;;;;0.98;0.70;;;23.90;31.70;;;;;;5057635;28;20386;-49
2022/01/27 10:33:56;;;;;;;1.40;0.55;;;23.90;31.70;;;;;;5042272;28;20103;-48
2022/01/27 10:36:30;;;;;;;1.10;0.73;;;23.80;31.80;;;;;;5060685;28;20044;-45
2022/01/27 10:38:58;;;;;;;1.58;0.75;;;23.70;31.90;;;;;;5072059;28;20040;-49
2022/01/27 10:41:29;;;;;;;1.17;0.73;;;23.70;32.00;;;;;;5069780;28;20424;-47
2022/01/27 10:44:10;;;;;;;1.27;0.80;;;23.70;32.10;;;;;;5071017;28;20305;-47
2022/01/27 10:46:43;;;;;;;1.63;0.80;;;23.60;32.10;;;;;;5057261;28;20416;-46
2022/01/27 10:49:13;;;;;;;1.30;0.77;;;23.60;32.20;;;;;;5057724;28;20040;-50
2022/01/27 10:51:46;;;;;;;0.80;0.60;;;23.50;32.20;;;;;;5060012;28;20094;-46
2022/01/27 10:54:21;;;;;;;1.20;0.70;;;23.50;32.30;;;;;;5061698;28;20025;-47
2022/01/27 10:56:48;;;;;;;1.27;0.60;;;23.50;32.40;;;;;;5062064;28;20016;-48
2022/01/27 10:59:18;;;;;;;0.80;0.60;;;23.40;32.50;;;;;;5071538;28;20078;-49
2022/01/27 11:01:47;;;;;;;1.42;0.70;;;23.40;32.50;;;;;;5067012;28;20044;-48
2022/01/27 11:04:15;;;;;;;1.05;0.60;;;23.40;32.60;;;;;;5039407;28;20056;-48
2022/01/27 11:07:01;;;;;;;1.35;0.73;;;23.40;32.60;;;;;;5062948;28;20025;-47
2022/01/27 11:09:33;;;;;;;1.30;0.90;;;23.40;32.60;;;;;;5057292;28;20352;-44
2022/01/27 11:12:00;;;;;;;0.98;0.80;;;23.40;32.60;;;;;;5069392;28;20367;-45
2022/01/27 11:14:26;;;;;;;0.80;0.55;;;23.40;32.70;;;;;;5057547;28;20024;-46
2022/01/27 11:16:57;;;;;;;0.52;0.50;;;23.30;32.60;;;;;;5058081;28;20099;-54
2022/01/27 11:22:02;;;;;;;1.85;0.75;;;23.30;32.60;;;;;;5057284;28;20063;-48
2022/01/27 11:25:05;;;;;;;1.20;0.55;;;23.30;32.50;;;;;;5061534;28;20074;-47
2022/01/27 11:27:25;;;;;;;0.60;0.50;;;23.30;32.50;;;;;;5050317;28;20328;-44
2022/01/27 11:30:01;;;;;;;0.65;0.50;;;23.30;32.50;;;;;;5057790;28;20109;-50
2022/01/27 11:32:41;;;;;;;0.70;0.50;;;23.30;32.60;;;;;;5057980;28;20100;-48
2022/01/27 11:35:24;;;;;;;3.08;0.60;;;23.30;32.70;;;;;;5056570;28;20419;-48
2022/01/27 11:37:52;;;;;;;4.32;0.98;;;23.30;32.80;;;;;;5059316;28;20367;-48
2022/01/27 11:40:20;;;;;;;2.03;0.80;;;23.40;33.00;;;;;;5058733;28;20041;-56
2022/01/27 11:42:55;;;;;;;1.73;0.90;;;23.40;33.10;;;;;;5057769;28;20092;-47
2022/01/27 11:45:21;;;;;;;1.63;0.70;;;23.40;33.20;;;;;;5056559;28;20052;-47
2022/01/27 11:47:59;;;;;;;2.45;0.90;;;23.50;33.30;;;;;;5053225;28;20016;-51
2022/01/27 11:50:37;;;;;;;1.95;0.95;;;23.50;33.30;;;;;;5059998;28;20029;-50
2022/01/27 11:53:04;;;;;;;2.92;0.80;;;23.50;33.30;;;;;;5041863;28;20017;-52
2022/01/27 11:55:34;;;;;;;0.50;0.50;;;23.50;33.20;;;;;;5045275;28;20040;-50
2022/01/27 11:58:21;;;;;;;1.17;0.90;;;23.60;33.20;;;;;;5052479;28;20335;-47
2022/01/27 12:01:07;;;;;;;1.92;0.80;;;23.60;33.10;;;;;;5064220;28;20041;-48
2022/01/27 12:03:34;;;;;;;1.58;0.90;;;23.60;33.10;;;;;;5060433;28;20025;-47
2022/01/27 12:06:21;;;;;;;1.33;0.98;;;23.50;33.10;;;;;;5064205;28;20028;-48
2022/01/27 12:08:47;;;;;;;1.83;0.82;;;23.60;33.10;;;;;;5057507;28;20029;-49
2022/01/27 12:11:42;;;;;;;0.98;0.77;;;23.50;33.20;;;;;;5040184;28;20097;-51
2022/01/27 12:14:07;;;;;;;;;;;23.50;33.10;;;;;;5051772;28;20016;-48
2022/01/27 12:19:10;;;;;;;2.78;1.13;;;23.50;33.40;;;;;;5054092;28;20336;-52
2022/01/27 12:21:39;;;;;;;1.60;0.90;;;23.50;33.50;;;;;;5054705;28;20029;-50
2022/01/27 12:24:24;;;;;;;1.30;0.70;;;23.60;33.50;;;;;;5057825;28;20032;-48
2022/01/27 12:27:03;;;;;;;1.60;0.90;;;23.60;33.50;;;;;;5050597;28;20113;-50
2022/01/27 12:29:34;;;;;;;1.70;0.57;;;23.60;33.50;;;;;;5046447;28;20095;-47
2022/01/27 12:32:05;;;;;;;1.35;0.80;;;23.70;33.60;;;;;;5041753;28;20116;-53
2022/01/27 12:34:33;;;;;;;1.10;0.77;;;23.70;33.60;;;;;;5054392;28;20057;-47
2022/01/27 12:37:00;;;;;;;1.55;0.80;;;23.70;33.60;;;;;;5041566;28;20025;-50
2022/01/27 12:39:29;;;;;;;2.28;1.05;;;23.70;33.50;;;;;;5055029;28;20402;-55
2022/01/27 12:41:55;;;;;;;1.50;0.98;;;23.70;33.50;;;;;;5065262;28;20104;-48
2022/01/27 12:44:26;;;;;;;1.95;1.15;;;23.70;33.50;;;;;;5054975;28;20017;-47
2022/01/27 12:47:06;;;;;;;1.70;0.70;;;23.70;33.40;;;;;;5055444;28;20029;-49
2022/01/27 12:49:47;;;;;;;1.83;0.90;;;23.70;33.40;;;;;;5055162;28;20388;-50
2022/01/27 12:52:17;;;;;;;1.23;0.80;;;23.70;33.40;;;;;;5055323;28;20036;-51
2022/01/27 12:54:44;;;;;;;2.45;1.00;;;23.70;33.40;;;;;;5055139;28;20214;-52
2022/01/27 12:57:12;;;;;;;1.27;0.85;;;23.70;33.30;;;;;;5054781;28;20061;-49
2022/01/27 12:59:41;;;;;;;1.35;0.90;;;23.70;33.30;;;;;;5054842;28;20475;-50
2022/01/27 13:02:10;;;;;;;1.85;1.00;;;23.70;33.30;;;;;;5054872;28;20055;-50
2022/01/27 13:04:38;;;;;;;1.52;1.10;;;23.70;33.20;;;;;;5055140;28;20417;-51
2022/01/27 13:07:04;;;;;;;1.88;1.00;;;23.80;33.30;;;;;;5055304;28;20029;-50
2022/01/27 13:09:33;;;;;;;1.50;0.88;;;23.80;33.30;;;;;;5055442;28;20039;-51
2022/01/27 13:12:11;;;;;;;2.00;1.00;;;23.80;33.30;;;;;;5036840;28;20028;-50
2022/01/27 13:14:51;;;;;;;1.83;0.90;;;23.80;33.30;;;;;;5053383;28;20096;-49
2022/01/27 13:17:31;;;;;;;2.28;1.00;;;23.80;33.30;;;;;;5054504;28;20162;-47
2022/01/27 13:20:13;;;;;;;1.30;0.90;;;23.80;33.30;;;;;;5055062;28;20041;-47
2022/01/27 13:22:53;;;;;;;2.90;0.80;;;23.80;33.90;;;;;;5055694;28;20028;-49
2022/01/27 13:25:21;;;;;;;2.42;0.98;;;23.90;33.30;;;;;;5054863;28;20033;-48
2022/01/27 13:28:09;;;;;;;1.40;0.80;;;23.80;33.90;;;;;;5054932;28;20020;-48
2022/01/27 13:30:35;;;;;;;1.10;0.80;;;23.90;33.20;;;;;;5059819;28;20025;-53
2022/01/27 13:33:06;;;;;;;4.68;0.90;;;23.90;33.30;;;;;;5055158;28;20028;-51
2022/01/27 13:35:34;;;;;;;1.45;0.98;;;23.90;33.30;;;;;;5067828;28;20154;-50
2022/01/27 13:38:22;;;;;;;2.25;0.88;;;23.90;33.30;;;;;;5064869;28;20048;-51
2022/01/27 13:43:42;;;;;;;1.10;0.90;;;23.90;33.30;;;;;;5054970;28;20032;-48
2022/01/27 13:46:10;;;;;;;4.13;1.20;;;23.90;33.40;;;;;;5054201;28;20060;-52
2022/01/27 13:48:44;;;;;;;2.05;1.00;;;23.90;33.30;;;;;;5054462;28;20029;-45
2022/01/27 13:51:18;;;;;;;1.58;1.13;;;23.90;33.30;;;;;;5053687;28;20463;-49